sensor_id;sensor_type;location;lat;lon;timestamp;temperature;humidity
59075;DHT22;44860;53.020;6.738;2023-02-28T00:01:20;4.00;99.90
59075;DHT22;44860;53.020;6.738;2023-02-28T00:03:45;3.90;99.90
59075;DHT22;44860;53.020;6.738;2023-02-28T00:06:11;4.00;99.90
59075;DHT22;44860;53.020;6.738;2023-02-28T00:08:37;3.90;99.90
59075;DHT22;44860;53.020;6.738;2023-02-28T00:11:05;4.00;99.90
59075;DHT22;44860;53.020;6.738;2023-02-28T00:13:32;3.90;99.90
59075;DHT22;44860;53.020;6.738;2023-02-28T00:16:07;4.00;99.90
59075;DHT22;44860;53.020;6.738;2023-02-28T00:18:33;4.00;99.90
59075;DHT22;44860;53.020;6.738;2023-02-28T00:20:59;4.00;99.90
59075;DHT22;44860;53.020;6.738;2023-02-28T00:23:25;4.00;99.90
59075;DHT22;44860;53.020;6.738;2023-02-28T00:25:51;4.00;99.90
59075;DHT22;44860;53.020;6.738;2023-02-28T00:28:17;4.00;99.90
59075;DHT22;44860;53.020;6.738;2023-02-28T00:30:43;4.00;99.90
59075;DHT22;44860;53.020;6.738;2023-02-28T00:33:09;4.00;99.90
59075;DHT22;44860;53.020;6.738;2023-02-28T00:35:35;4.00;99.90
59075;DHT22;44860;53.020;6.738;2023-02-28T00:38:01;4.00;99.90
59075;DHT22;44860;53.020;6.738;2023-02-28T00:40:27;3.90;99.90
59075;DHT22;44860;53.020;6.738;2023-02-28T00:42:52;3.90;99.90
59075;DHT22;44860;53.020;6.738;2023-02-28T00:45:18;3.90;99.90
59075;DHT22;44860;53.020;6.738;2023-02-28T00:47:44;3.90;99.90
59075;DHT22;44860;53.020;6.738;2023-02-28T00:50:12;4.00;99.90
59075;DHT22;44860;53.020;6.738;2023-02-28T00:52:37;4.00;99.90
59075;DHT22;44860;53.020;6.738;2023-02-28T00:55:04;4.00;99.90
59075;DHT22;44860;53.020;6.738;2023-02-28T00:57:29;4.00;99.90
59075;DHT22;44860;53.020;6.738;2023-02-28T00:59:55;4.00;99.90
59075;DHT22;44860;53.020;6.738;2023-02-28T01:02:22;4.00;99.90
59075;DHT22;44860;53.020;6.738;2023-02-28T01:04:48;4.00;99.90
59075;DHT22;44860;53.020;6.738;2023-02-28T01:07:13;4.00;99.90
59075;DHT22;44860;53.020;6.738;2023-02-28T01:09:40;4.00;99.90
59075;DHT22;44860;53.020;6.738;2023-02-28T01:12:07;4.00;99.90
59075;DHT22;44860;53.020;6.738;2023-02-28T01:14:33;4.00;99.90
59075;DHT22;44860;53.020;6.738;2023-02-28T01:17:00;4.00;99.90
59075;DHT22;44860;53.020;6.738;2023-02-28T01:19:26;4.00;99.90
59075;DHT22;44860;53.020;6.738;2023-02-28T01:21:51;4.00;99.90
59075;DHT22;44860;53.020;6.738;2023-02-28T01:24:17;4.00;99.90
59075;DHT22;44860;53.020;6.738;2023-02-28T01:26:43;4.00;99.90
59075;DHT22;44860;53.020;6.738;2023-02-28T01:29:08;4.00;99.90
59075;DHT22;44860;53.020;6.738;2023-02-28T01:31:34;4.00;99.90
59075;DHT22;44860;53.020;6.738;2023-02-28T01:34:00;4.00;99.90
59075;DHT22;44860;53.020;6.738;2023-02-28T01:36:26;4.00;99.90
59075;DHT22;44860;53.020;6.738;2023-02-28T01:38:52;4.00;99.90
59075;DHT22;44860;53.020;6.738;2023-02-28T01:41:36;4.00;99.90
59075;DHT22;44860;53.020;6.738;2023-02-28T01:46:48;4.00;99.90
59075;DHT22;44860;53.020;6.738;2023-02-28T01:49:15;3.90;99.90
59075;DHT22;44860;53.020;6.738;2023-02-28T01:51:53;3.90;99.90
59075;DHT22;44860;53.020;6.738;2023-02-28T01:54:23;3.90;99.90
59075;DHT22;44860;53.020;6.738;2023-02-28T01:57:00;3.90;99.90
59075;DHT22;44860;53.020;6.738;2023-02-28T01:59:31;3.90;99.90
59075;DHT22;44860;53.020;6.738;2023-02-28T02:02:00;3.90;99.90
59075;DHT22;44860;53.020;6.738;2023-02-28T02:04:32;3.90;99.90
59075;DHT22;44860;53.020;6.738;2023-02-28T02:06:59;3.90;99.90
59075;DHT22;44860;53.020;6.738;2023-02-28T02:09:25;4.00;99.90
59075;DHT22;44860;53.020;6.738;2023-02-28T02:11:51;4.00;99.90
59075;DHT22;44860;53.020;6.738;2023-02-28T02:14:59;4.00;99.90
59075;DHT22;44860;53.020;6.738;2023-02-28T02:17:38;4.00;99.90
59075;DHT22;44860;53.020;6.738;2023-02-28T02:28:05;4.00;99.90
59075;DHT22;44860;53.020;6.738;2023-02-28T02:36:03;4.00;99.90
59075;DHT22;44860;53.020;6.738;2023-02-28T02:38:44;4.00;99.90
59075;DHT22;44860;53.020;6.738;2023-02-28T02:41:14;4.00;99.90
59075;DHT22;44860;53.020;6.738;2023-02-28T02:43:57;4.00;99.90
59075;DHT22;44860;53.020;6.738;2023-02-28T02:46:35;4.00;99.90
59075;DHT22;44860;53.020;6.738;2023-02-28T02:49:06;4.00;99.90
59075;DHT22;44860;53.020;6.738;2023-02-28T02:51:34;4.00;99.90
59075;DHT22;44860;53.020;6.738;2023-02-28T02:54:10;4.00;99.90
59075;DHT22;44860;53.020;6.738;2023-02-28T02:56:39;4.00;99.90
59075;DHT22;44860;53.020;6.738;2023-02-28T02:59:10;4.00;99.90
59075;DHT22;44860;53.020;6.738;2023-02-28T03:01:38;4.00;99.90
59075;DHT22;44860;53.020;6.738;2023-02-28T03:04:09;4.00;99.90
59075;DHT22;44860;53.020;6.738;2023-02-28T03:06:36;4.00;99.90
59075;DHT22;44860;53.020;6.738;2023-02-28T03:09:02;3.90;99.90
59075;DHT22;44860;53.020;6.738;2023-02-28T03:11:29;3.90;99.90
59075;DHT22;44860;53.020;6.738;2023-02-28T03:14:08;3.90;99.90
59075;DHT22;44860;53.020;6.738;2023-02-28T03:27:27;3.90;99.90
59075;DHT22;44860;53.020;6.738;2023-02-28T03:32:36;3.80;99.90
59075;DHT22;44860;53.020;6.738;2023-02-28T03:35:31;3.80;99.90
59075;DHT22;44860;53.020;6.738;2023-02-28T03:38:22;3.80;99.90
59075;DHT22;44860;53.020;6.738;2023-02-28T03:40:54;3.80;99.90
59075;DHT22;44860;53.020;6.738;2023-02-28T03:43:29;3.80;99.90
59075;DHT22;44860;53.020;6.738;2023-02-28T03:45:56;3.80;99.90
59075;DHT22;44860;53.020;6.738;2023-02-28T03:48:40;3.80;99.90
59075;DHT22;44860;53.020;6.738;2023-02-28T03:51:10;3.70;99.90
59075;DHT22;44860;53.020;6.738;2023-02-28T03:53:56;3.80;99.90
59075;DHT22;44860;53.020;6.738;2023-02-28T03:56:30;3.80;99.90
59075;DHT22;44860;53.020;6.738;2023-02-28T03:59:17;3.70;99.90
59075;DHT22;44860;53.020;6.738;2023-02-28T04:01:48;3.80;99.90
59075;DHT22;44860;53.020;6.738;2023-02-28T04:04:15;3.70;99.90
59075;DHT22;44860;53.020;6.738;2023-02-28T04:06:42;3.70;99.90
59075;DHT22;44860;53.020;6.738;2023-02-28T04:09:10;3.70;99.90
59075;DHT22;44860;53.020;6.738;2023-02-28T04:11:50;3.70;99.90
59075;DHT22;44860;53.020;6.738;2023-02-28T04:14:21;3.70;99.90
59075;DHT22;44860;53.020;6.738;2023-02-28T04:16:47;3.70;99.90
59075;DHT22;44860;53.020;6.738;2023-02-28T04:19:13;3.70;99.90
59075;DHT22;44860;53.020;6.738;2023-02-28T04:21:45;3.70;99.90
59075;DHT22;44860;53.020;6.738;2023-02-28T04:24:20;3.70;99.90
59075;DHT22;44860;53.020;6.738;2023-02-28T04:26:47;3.70;99.90
59075;DHT22;44860;53.020;6.738;2023-02-28T04:29:19;3.70;99.90
59075;DHT22;44860;53.020;6.738;2023-02-28T04:31:45;3.70;99.90
59075;DHT22;44860;53.020;6.738;2023-02-28T04:34:10;3.70;99.90
59075;DHT22;44860;53.020;6.738;2023-02-28T04:36:36;3.70;99.90
59075;DHT22;44860;53.020;6.738;2023-02-28T04:39:02;3.70;99.90
59075;DHT22;44860;53.020;6.738;2023-02-28T04:41:29;3.70;99.90
59075;DHT22;44860;53.020;6.738;2023-02-28T04:43:55;3.70;99.90
59075;DHT22;44860;53.020;6.738;2023-02-28T04:46:21;3.70;99.90
59075;DHT22;44860;53.020;6.738;2023-02-28T04:48:47;3.70;99.90
59075;DHT22;44860;53.020;6.738;2023-02-28T04:51:15;3.70;99.90
59075;DHT22;44860;53.020;6.738;2023-02-28T04:53:41;3.70;99.90
59075;DHT22;44860;53.020;6.738;2023-02-28T04:56:09;3.70;99.90
59075;DHT22;44860;53.020;6.738;2023-02-28T04:58:35;3.70;99.90
59075;DHT22;44860;53.020;6.738;2023-02-28T05:03:44;3.70;99.90
59075;DHT22;44860;53.020;6.738;2023-02-28T05:06:11;3.60;99.90
59075;DHT22;44860;53.020;6.738;2023-02-28T05:08:37;3.60;99.90
59075;DHT22;44860;53.020;6.738;2023-02-28T05:11:03;3.60;99.90
59075;DHT22;44860;53.020;6.738;2023-02-28T05:13:30;3.60;99.90
59075;DHT22;44860;53.020;6.738;2023-02-28T05:15:56;3.60;99.90
59075;DHT22;44860;53.020;6.738;2023-02-28T05:18:22;3.60;99.90
59075;DHT22;44860;53.020;6.738;2023-02-28T05:20:47;3.60;99.90
59075;DHT22;44860;53.020;6.738;2023-02-28T05:23:14;3.60;99.90
59075;DHT22;44860;53.020;6.738;2023-02-28T05:25:40;3.60;99.90
59075;DHT22;44860;53.020;6.738;2023-02-28T05:28:06;3.60;99.90
59075;DHT22;44860;53.020;6.738;2023-02-28T05:30:32;3.60;99.90
59075;DHT22;44860;53.020;6.738;2023-02-28T05:32:59;3.60;99.90
59075;DHT22;44860;53.020;6.738;2023-02-28T05:35:25;3.50;99.90
59075;DHT22;44860;53.020;6.738;2023-02-28T05:37:51;3.50;99.90
59075;DHT22;44860;53.020;6.738;2023-02-28T05:40:17;3.50;99.90
59075;DHT22;44860;53.020;6.738;2023-02-28T05:42:43;3.50;99.90
59075;DHT22;44860;53.020;6.738;2023-02-28T05:45:09;3.40;99.90
59075;DHT22;44860;53.020;6.738;2023-02-28T05:47:35;3.40;99.90
59075;DHT22;44860;53.020;6.738;2023-02-28T05:50:02;3.40;99.90
59075;DHT22;44860;53.020;6.738;2023-02-28T05:52:28;3.40;99.90
59075;DHT22;44860;53.020;6.738;2023-02-28T05:54:55;3.40;99.90
59075;DHT22;44860;53.020;6.738;2023-02-28T05:57:21;3.40;99.90
59075;DHT22;44860;53.020;6.738;2023-02-28T05:59:47;3.40;99.90
59075;DHT22;44860;53.020;6.738;2023-02-28T06:02:14;3.40;99.90
59075;DHT22;44860;53.020;6.738;2023-02-28T06:04:40;3.40;99.90
59075;DHT22;44860;53.020;6.738;2023-02-28T06:07:07;3.40;99.90
59075;DHT22;44860;53.020;6.738;2023-02-28T06:09:33;3.30;99.90
59075;DHT22;44860;53.020;6.738;2023-02-28T06:12:00;3.30;99.90
59075;DHT22;44860;53.020;6.738;2023-02-28T06:14:26;3.30;99.90
59075;DHT22;44860;53.020;6.738;2023-02-28T06:16:51;3.30;99.90
59075;DHT22;44860;53.020;6.738;2023-02-28T06:19:17;3.40;99.90
59075;DHT22;44860;53.020;6.738;2023-02-28T06:21:43;3.30;99.90
59075;DHT22;44860;53.020;6.738;2023-02-28T06:24:09;3.30;99.90
59075;DHT22;44860;53.020;6.738;2023-02-28T06:26:35;3.30;99.90
59075;DHT22;44860;53.020;6.738;2023-02-28T06:29:01;3.30;99.90
59075;DHT22;44860;53.020;6.738;2023-02-28T06:31:27;3.30;99.90
59075;DHT22;44860;53.020;6.738;2023-02-28T06:33:54;3.30;99.90
59075;DHT22;44860;53.020;6.738;2023-02-28T06:36:21;3.30;99.90
59075;DHT22;44860;53.020;6.738;2023-02-28T06:38:47;3.30;99.90
59075;DHT22;44860;53.020;6.738;2023-02-28T06:41:17;3.30;99.90
59075;DHT22;44860;53.020;6.738;2023-02-28T06:43:43;3.30;99.90
59075;DHT22;44860;53.020;6.738;2023-02-28T06:46:12;3.20;99.90
59075;DHT22;44860;53.020;6.738;2023-02-28T06:48:39;3.20;99.90
59075;DHT22;44860;53.020;6.738;2023-02-28T06:51:07;3.20;99.90
59075;DHT22;44860;53.020;6.738;2023-02-28T06:53:34;3.20;99.90
59075;DHT22;44860;53.020;6.738;2023-02-28T06:56:03;3.20;99.90
59075;DHT22;44860;53.020;6.738;2023-02-28T06:58:29;3.20;99.90
59075;DHT22;44860;53.020;6.738;2023-02-28T07:00:54;3.20;99.90
59075;DHT22;44860;53.020;6.738;2023-02-28T07:03:21;3.20;99.90
59075;DHT22;44860;53.020;6.738;2023-02-28T07:05:47;3.20;99.90
59075;DHT22;44860;53.020;6.738;2023-02-28T07:08:13;3.20;99.90
59075;DHT22;44860;53.020;6.738;2023-02-28T07:10:38;3.20;99.90
59075;DHT22;44860;53.020;6.738;2023-02-28T07:13:05;3.20;99.90
59075;DHT22;44860;53.020;6.738;2023-02-28T07:15:31;3.20;99.90
59075;DHT22;44860;53.020;6.738;2023-02-28T07:17:57;3.20;99.90
59075;DHT22;44860;53.020;6.738;2023-02-28T07:20:23;3.20;99.90
59075;DHT22;44860;53.020;6.738;2023-02-28T07:22:49;3.20;99.90
59075;DHT22;44860;53.020;6.738;2023-02-28T07:25:23;3.20;99.90
59075;DHT22;44860;53.020;6.738;2023-02-28T07:27:48;3.20;99.90
59075;DHT22;44860;53.020;6.738;2023-02-28T07:30:14;3.20;99.90
59075;DHT22;44860;53.020;6.738;2023-02-28T07:32:40;3.20;99.90
59075;DHT22;44860;53.020;6.738;2023-02-28T07:35:06;3.20;99.90
59075;DHT22;44860;53.020;6.738;2023-02-28T07:37:32;3.20;99.90
59075;DHT22;44860;53.020;6.738;2023-02-28T07:40:06;3.20;99.90
59075;DHT22;44860;53.020;6.738;2023-02-28T07:42:34;3.20;99.90
59075;DHT22;44860;53.020;6.738;2023-02-28T07:45:01;3.20;99.90
59075;DHT22;44860;53.020;6.738;2023-02-28T07:47:28;3.30;99.90
59075;DHT22;44860;53.020;6.738;2023-02-28T07:49:54;3.20;99.90
59075;DHT22;44860;53.020;6.738;2023-02-28T07:52:19;3.20;99.90
59075;DHT22;44860;53.020;6.738;2023-02-28T07:54:45;3.20;99.90
59075;DHT22;44860;53.020;6.738;2023-02-28T07:57:11;3.20;99.90
59075;DHT22;44860;53.020;6.738;2023-02-28T07:59:36;3.20;99.90
59075;DHT22;44860;53.020;6.738;2023-02-28T08:02:02;3.20;99.90
59075;DHT22;44860;53.020;6.738;2023-02-28T08:04:31;3.30;99.90
59075;DHT22;44860;53.020;6.738;2023-02-28T08:06:57;3.30;99.90
59075;DHT22;44860;53.020;6.738;2023-02-28T08:09:23;3.30;99.90
59075;DHT22;44860;53.020;6.738;2023-02-28T08:11:49;3.30;99.90
59075;DHT22;44860;53.020;6.738;2023-02-28T08:14:14;3.30;99.90
59075;DHT22;44860;53.020;6.738;2023-02-28T08:16:41;3.30;99.90
59075;DHT22;44860;53.020;6.738;2023-02-28T08:19:08;3.40;99.90
59075;DHT22;44860;53.020;6.738;2023-02-28T08:21:34;3.40;99.90
59075;DHT22;44860;53.020;6.738;2023-02-28T08:24:00;3.40;99.90
59075;DHT22;44860;53.020;6.738;2023-02-28T08:26:26;3.40;99.90
59075;DHT22;44860;53.020;6.738;2023-02-28T08:28:51;3.40;99.90
59075;DHT22;44860;53.020;6.738;2023-02-28T08:31:18;3.40;99.90
59075;DHT22;44860;53.020;6.738;2023-02-28T08:33:44;3.40;99.90
59075;DHT22;44860;53.020;6.738;2023-02-28T08:36:11;3.40;99.90
59075;DHT22;44860;53.020;6.738;2023-02-28T08:38:37;3.50;99.90
59075;DHT22;44860;53.020;6.738;2023-02-28T08:41:05;3.50;99.90
59075;DHT22;44860;53.020;6.738;2023-02-28T08:43:33;3.50;99.90
59075;DHT22;44860;53.020;6.738;2023-02-28T08:45:59;3.50;99.90
59075;DHT22;44860;53.020;6.738;2023-02-28T08:48:27;3.60;99.90
59075;DHT22;44860;53.020;6.738;2023-02-28T08:51:04;3.60;99.90
59075;DHT22;44860;53.020;6.738;2023-02-28T08:53:30;3.60;99.90
59075;DHT22;44860;53.020;6.738;2023-02-28T08:56:01;3.60;99.90
59075;DHT22;44860;53.020;6.738;2023-02-28T08:58:27;3.60;99.90
59075;DHT22;44860;53.020;6.738;2023-02-28T09:00:53;3.70;99.90
59075;DHT22;44860;53.020;6.738;2023-02-28T09:03:19;3.70;99.90
59075;DHT22;44860;53.020;6.738;2023-02-28T09:06:00;3.70;99.90
59075;DHT22;44860;53.020;6.738;2023-02-28T09:08:28;3.70;99.90
59075;DHT22;44860;53.020;6.738;2023-02-28T09:10:55;3.70;99.90
59075;DHT22;44860;53.020;6.738;2023-02-28T09:13:22;3.80;99.90
59075;DHT22;44860;53.020;6.738;2023-02-28T09:15:48;3.80;99.90
59075;DHT22;44860;53.020;6.738;2023-02-28T09:18:14;3.80;99.90
59075;DHT22;44860;53.020;6.738;2023-02-28T09:20:41;3.80;99.90
59075;DHT22;44860;53.020;6.738;2023-02-28T09:23:08;3.90;99.90
59075;DHT22;44860;53.020;6.738;2023-02-28T09:25:34;3.90;99.90
59075;DHT22;44860;53.020;6.738;2023-02-28T09:28:00;3.90;99.90
59075;DHT22;44860;53.020;6.738;2023-02-28T09:30:26;4.00;99.90
59075;DHT22;44860;53.020;6.738;2023-02-28T09:32:52;4.00;99.90
59075;DHT22;44860;53.020;6.738;2023-02-28T09:35:23;4.00;99.90
59075;DHT22;44860;53.020;6.738;2023-02-28T09:37:50;4.00;99.90
59075;DHT22;44860;53.020;6.738;2023-02-28T09:40:22;4.00;99.90
59075;DHT22;44860;53.020;6.738;2023-02-28T09:42:51;4.10;99.90
59075;DHT22;44860;53.020;6.738;2023-02-28T09:45:30;4.10;99.90
59075;DHT22;44860;53.020;6.738;2023-02-28T09:48:01;4.10;99.90
59075;DHT22;44860;53.020;6.738;2023-02-28T09:50:38;4.10;99.90
59075;DHT22;44860;53.020;6.738;2023-02-28T09:53:10;4.20;99.90
59075;DHT22;44860;53.020;6.738;2023-02-28T09:55:45;4.20;99.90
59075;DHT22;44860;53.020;6.738;2023-02-28T09:58:37;4.20;99.90
59075;DHT22;44860;53.020;6.738;2023-02-28T10:01:47;4.30;99.90
59075;DHT22;44860;53.020;6.738;2023-02-28T10:04:40;4.30;99.90
59075;DHT22;44860;53.020;6.738;2023-02-28T10:07:28;4.40;99.90
59075;DHT22;44860;53.020;6.738;2023-02-28T10:09:57;4.50;99.90
59075;DHT22;44860;53.020;6.738;2023-02-28T10:12:23;4.60;99.90
59075;DHT22;44860;53.020;6.738;2023-02-28T10:14:52;4.70;99.90
59075;DHT22;44860;53.020;6.738;2023-02-28T10:17:22;4.80;99.90
59075;DHT22;44860;53.020;6.738;2023-02-28T10:22:22;5.00;99.90
59075;DHT22;44860;53.020;6.738;2023-02-28T10:24:52;5.10;99.90
59075;DHT22;44860;53.020;6.738;2023-02-28T10:27:21;5.10;99.90
59075;DHT22;44860;53.020;6.738;2023-02-28T10:29:49;5.10;99.90
59075;DHT22;44860;53.020;6.738;2023-02-28T10:32:21;5.10;99.90
59075;DHT22;44860;53.020;6.738;2023-02-28T10:34:55;5.10;99.90
59075;DHT22;44860;53.020;6.738;2023-02-28T10:37:22;5.10;99.90
59075;DHT22;44860;53.020;6.738;2023-02-28T10:39:48;5.20;99.90
59075;DHT22;44860;53.020;6.738;2023-02-28T10:42:26;5.20;99.90
59075;DHT22;44860;53.020;6.738;2023-02-28T10:45:14;5.20;99.90
59075;DHT22;44860;53.020;6.738;2023-02-28T10:47:58;5.30;99.90
59075;DHT22;44860;53.020;6.738;2023-02-28T10:55:40;5.50;99.90
59075;DHT22;44860;53.020;6.738;2023-02-28T10:58:21;5.50;99.90
59075;DHT22;44860;53.020;6.738;2023-02-28T11:00:47;5.50;99.90
59075;DHT22;44860;53.020;6.738;2023-02-28T11:03:34;5.50;99.90
59075;DHT22;44860;53.020;6.738;2023-02-28T11:06:06;5.60;99.90
59075;DHT22;44860;53.020;6.738;2023-02-28T11:08:32;5.60;99.90
59075;DHT22;44860;53.020;6.738;2023-02-28T11:11:03;5.70;99.90
59075;DHT22;44860;53.020;6.738;2023-02-28T11:13:35;5.70;99.90
59075;DHT22;44860;53.020;6.738;2023-02-28T11:16:04;5.70;99.90
59075;DHT22;44860;53.020;6.738;2023-02-28T11:21:05;5.80;99.90
59075;DHT22;44860;53.020;6.738;2023-02-28T11:23:32;5.80;99.90
59075;DHT22;44860;53.020;6.738;2023-02-28T11:26:01;5.80;99.90
59075;DHT22;44860;53.020;6.738;2023-02-28T11:28:30;5.90;99.90
59075;DHT22;44860;53.020;6.738;2023-02-28T11:33:53;5.90;99.90
59075;DHT22;44860;53.020;6.738;2023-02-28T11:36:29;6.00;99.90
59075;DHT22;44860;53.020;6.738;2023-02-28T11:38:59;6.10;99.90
59075;DHT22;44860;53.020;6.738;2023-02-28T11:52:54;6.30;99.90
59075;DHT22;44860;53.020;6.738;2023-02-28T11:55:37;6.30;99.90
59075;DHT22;44860;53.020;6.738;2023-02-28T12:06:23;6.40;99.90
59075;DHT22;44860;53.020;6.738;2023-02-28T12:12:04;6.40;99.90
59075;DHT22;44860;53.020;6.738;2023-02-28T12:29:30;6.30;99.90
59075;DHT22;44860;53.020;6.738;2023-02-28T12:32:13;6.20;99.90
59075;DHT22;44860;53.020;6.738;2023-02-28T12:34:51;6.20;99.90
59075;DHT22;44860;53.020;6.738;2023-02-28T12:39:54;6.30;99.90
59075;DHT22;44860;53.020;6.738;2023-02-28T12:42:32;6.30;99.90
59075;DHT22;44860;53.020;6.738;2023-02-28T12:45:13;6.40;99.90
59075;DHT22;44860;53.020;6.738;2023-02-28T12:47:42;6.50;99.90
59075;DHT22;44860;53.020;6.738;2023-02-28T12:50:10;6.50;99.90
59075;DHT22;44860;53.020;6.738;2023-02-28T12:55:18;6.60;99.90
59075;DHT22;44860;53.020;6.738;2023-02-28T13:00:21;6.70;99.90
59075;DHT22;44860;53.020;6.738;2023-02-28T13:10:56;7.30;99.90
59075;DHT22;44860;53.020;6.738;2023-02-28T13:13:27;7.30;99.90
59075;DHT22;44860;53.020;6.738;2023-02-28T13:16:10;7.40;99.90
59075;DHT22;44860;53.020;6.738;2023-02-28T13:18:42;7.40;99.90
59075;DHT22;44860;53.020;6.738;2023-02-28T13:21:21;7.50;99.90
59075;DHT22;44860;53.020;6.738;2023-02-28T13:24:03;7.50;99.90
59075;DHT22;44860;53.020;6.738;2023-02-28T13:31:31;7.90;99.90
59075;DHT22;44860;53.020;6.738;2023-02-28T13:34:13;8.00;99.90
59075;DHT22;44860;53.020;6.738;2023-02-28T13:36:39;8.00;99.90
59075;DHT22;44860;53.020;6.738;2023-02-28T13:42:32;8.00;99.90
59075;DHT22;44860;53.020;6.738;2023-02-28T14:01:11;8.30;99.90
59075;DHT22;44860;53.020;6.738;2023-02-28T14:06:35;8.50;99.90
59075;DHT22;44860;53.020;6.738;2023-02-28T14:11:39;8.40;99.90
59075;DHT22;44860;53.020;6.738;2023-02-28T14:14:08;8.30;99.90
59075;DHT22;44860;53.020;6.738;2023-02-28T14:16:40;8.30;99.90
59075;DHT22;44860;53.020;6.738;2023-02-28T14:19:24;8.20;99.90
59075;DHT22;44860;53.020;6.738;2023-02-28T14:32:47;8.10;99.90
59075;DHT22;44860;53.020;6.738;2023-02-28T14:37:46;8.20;99.90
59075;DHT22;44860;53.020;6.738;2023-02-28T14:40:27;8.20;99.90
59075;DHT22;44860;53.020;6.738;2023-02-28T14:43:02;8.30;99.90
59075;DHT22;44860;53.020;6.738;2023-02-28T14:45:30;8.40;99.90
59075;DHT22;44860;53.020;6.738;2023-02-28T14:47:57;8.50;99.90
59075;DHT22;44860;53.020;6.738;2023-02-28T14:50:35;8.50;99.90
59075;DHT22;44860;53.020;6.738;2023-02-28T14:53:02;8.50;99.90
59075;DHT22;44860;53.020;6.738;2023-02-28T14:55:30;8.60;99.90
59075;DHT22;44860;53.020;6.738;2023-02-28T14:57:59;8.60;99.90
59075;DHT22;44860;53.020;6.738;2023-02-28T15:00:28;8.70;99.90
59075;DHT22;44860;53.020;6.738;2023-02-28T15:02:56;8.70;99.90
59075;DHT22;44860;53.020;6.738;2023-02-28T15:05:31;8.80;99.90
59075;DHT22;44860;53.020;6.738;2023-02-28T15:08:09;8.90;99.90
59075;DHT22;44860;53.020;6.738;2023-02-28T15:10:36;8.90;99.90
59075;DHT22;44860;53.020;6.738;2023-02-28T15:13:06;9.00;99.90
59075;DHT22;44860;53.020;6.738;2023-02-28T15:18:30;9.00;99.90
59075;DHT22;44860;53.020;6.738;2023-02-28T15:21:07;9.10;99.90
59075;DHT22;44860;53.020;6.738;2023-02-28T15:23:34;9.00;99.90
59075;DHT22;44860;53.020;6.738;2023-02-28T15:26:02;9.00;99.90
59075;DHT22;44860;53.020;6.738;2023-02-28T15:28:28;9.10;99.90
59075;DHT22;44860;53.020;6.738;2023-02-28T15:31:00;9.00;99.90
59075;DHT22;44860;53.020;6.738;2023-02-28T15:33:32;9.00;99.90
59075;DHT22;44860;53.020;6.738;2023-02-28T15:36:15;9.00;99.90
59075;DHT22;44860;53.020;6.738;2023-02-28T15:38:43;8.90;99.90
59075;DHT22;44860;53.020;6.738;2023-02-28T15:41:30;8.70;99.90
59075;DHT22;44860;53.020;6.738;2023-02-28T15:44:34;8.70;99.90
59075;DHT22;44860;53.020;6.738;2023-02-28T15:47:23;8.50;99.90
59075;DHT22;44860;53.020;6.738;2023-02-28T15:49:55;8.40;99.90
59075;DHT22;44860;53.020;6.738;2023-02-28T15:52:38;8.30;99.90
59075;DHT22;44860;53.020;6.738;2023-02-28T15:57:35;8.30;99.90
59075;DHT22;44860;53.020;6.738;2023-02-28T16:00:02;8.30;99.90
59075;DHT22;44860;53.020;6.738;2023-02-28T16:02:38;8.30;99.90
59075;DHT22;44860;53.020;6.738;2023-02-28T16:07:37;8.20;99.90
59075;DHT22;44860;53.020;6.738;2023-02-28T16:10:05;8.10;99.90
59075;DHT22;44860;53.020;6.738;2023-02-28T16:12:33;8.20;99.90
59075;DHT22;44860;53.020;6.738;2023-02-28T16:15:02;8.10;99.90
59075;DHT22;44860;53.020;6.738;2023-02-28T16:17:33;8.00;99.90
59075;DHT22;44860;53.020;6.738;2023-02-28T16:19:59;7.90;99.90
59075;DHT22;44860;53.020;6.738;2023-02-28T16:22:25;7.90;99.90
59075;DHT22;44860;53.020;6.738;2023-02-28T16:24:50;7.80;99.90
59075;DHT22;44860;53.020;6.738;2023-02-28T16:27:36;7.70;99.90
59075;DHT22;44860;53.020;6.738;2023-02-28T16:30:05;7.70;99.90
59075;DHT22;44860;53.020;6.738;2023-02-28T16:32:33;7.60;99.90
59075;DHT22;44860;53.020;6.738;2023-02-28T16:35:00;7.50;99.90
59075;DHT22;44860;53.020;6.738;2023-02-28T16:37:26;7.50;99.90
59075;DHT22;44860;53.020;6.738;2023-02-28T16:39:52;7.40;99.90
59075;DHT22;44860;53.020;6.738;2023-02-28T16:42:26;7.40;99.90
59075;DHT22;44860;53.020;6.738;2023-02-28T16:44:53;7.40;99.90
59075;DHT22;44860;53.020;6.738;2023-02-28T16:47:19;7.30;99.90
59075;DHT22;44860;53.020;6.738;2023-02-28T16:49:45;7.20;99.90
59075;DHT22;44860;53.020;6.738;2023-02-28T16:52:13;7.10;99.90
59075;DHT22;44860;53.020;6.738;2023-02-28T16:54:39;7.00;99.90
59075;DHT22;44860;53.020;6.738;2023-02-28T16:57:11;7.00;99.90
59075;DHT22;44860;53.020;6.738;2023-02-28T16:59:37;6.90;99.90
59075;DHT22;44860;53.020;6.738;2023-02-28T17:02:10;6.80;99.90
59075;DHT22;44860;53.020;6.738;2023-02-28T17:04:37;6.70;99.90
59075;DHT22;44860;53.020;6.738;2023-02-28T17:07:02;6.60;99.90
59075;DHT22;44860;53.020;6.738;2023-02-28T17:09:28;6.50;99.90
59075;DHT22;44860;53.020;6.738;2023-02-28T17:11:54;6.40;99.90
59075;DHT22;44860;53.020;6.738;2023-02-28T17:14:20;6.30;99.90
59075;DHT22;44860;53.020;6.738;2023-02-28T17:16:46;6.20;99.90
59075;DHT22;44860;53.020;6.738;2023-02-28T17:19:14;6.10;99.90
59075;DHT22;44860;53.020;6.738;2023-02-28T17:21:41;5.90;99.90
59075;DHT22;44860;53.020;6.738;2023-02-28T17:24:10;5.90;99.90
59075;DHT22;44860;53.020;6.738;2023-02-28T17:26:39;5.80;99.90
59075;DHT22;44860;53.020;6.738;2023-02-28T17:29:11;5.60;99.90
59075;DHT22;44860;53.020;6.738;2023-02-28T17:31:38;5.60;99.90
59075;DHT22;44860;53.020;6.738;2023-02-28T17:34:04;5.50;99.90
59075;DHT22;44860;53.020;6.738;2023-02-28T17:36:30;5.40;99.90
59075;DHT22;44860;53.020;6.738;2023-02-28T17:38:59;5.40;99.90
59075;DHT22;44860;53.020;6.738;2023-02-28T17:41:25;5.30;99.90
59075;DHT22;44860;53.020;6.738;2023-02-28T17:43:52;5.30;99.90
59075;DHT22;44860;53.020;6.738;2023-02-28T17:46:22;5.30;99.90
59075;DHT22;44860;53.020;6.738;2023-02-28T17:48:52;5.20;99.90
59075;DHT22;44860;53.020;6.738;2023-02-28T17:51:19;5.20;99.90
59075;DHT22;44860;53.020;6.738;2023-02-28T17:53:45;5.10;99.90
59075;DHT22;44860;53.020;6.738;2023-02-28T17:56:15;5.00;99.90
59075;DHT22;44860;53.020;6.738;2023-02-28T17:58:41;5.00;99.90
59075;DHT22;44860;53.020;6.738;2023-02-28T18:01:07;4.90;99.90
59075;DHT22;44860;53.020;6.738;2023-02-28T18:03:33;4.80;99.90
59075;DHT22;44860;53.020;6.738;2023-02-28T18:06:00;4.80;99.90
59075;DHT22;44860;53.020;6.738;2023-02-28T18:08:27;4.70;99.90
59075;DHT22;44860;53.020;6.738;2023-02-28T18:10:53;4.70;99.90
59075;DHT22;44860;53.020;6.738;2023-02-28T18:13:18;4.60;99.90
59075;DHT22;44860;53.020;6.738;2023-02-28T18:15:44;4.60;99.90
59075;DHT22;44860;53.020;6.738;2023-02-28T18:18:10;4.50;99.90
59075;DHT22;44860;53.020;6.738;2023-02-28T18:20:36;4.50;99.90
59075;DHT22;44860;53.020;6.738;2023-02-28T18:23:01;4.40;99.90
59075;DHT22;44860;53.020;6.738;2023-02-28T18:25:28;4.40;99.90
59075;DHT22;44860;53.020;6.738;2023-02-28T18:27:54;4.40;99.90
59075;DHT22;44860;53.020;6.738;2023-02-28T18:30:35;4.30;99.90